createdAt,value
2023-02-02T00:01:42.116Z,69.20
2023-02-02T00:04:17.540Z,69.30
2023-02-02T00:06:48.993Z,69.20
2023-02-02T00:09:31.209Z,69.20
2023-02-02T00:11:58.653Z,69.30
2023-02-02T00:14:27.091Z,69.50
2023-02-02T00:17:17.041Z,69.40
2023-02-02T00:19:47.060Z,69.60
2023-02-02T00:22:14.232Z,69.10
2023-02-02T00:24:42.844Z,69.30
2023-02-02T00:27:10.779Z,69.40
2023-02-02T00:29:37.694Z,69.10
2023-02-02T00:32:04.664Z,69.20
2023-02-02T00:34:31.588Z,69.10
2023-02-02T00:36:58.460Z,69.30
2023-02-02T00:39:26.248Z,69.20
2023-02-02T00:41:53.873Z,69.30
2023-02-02T00:44:39.124Z,69.40
2023-02-02T00:47:06.051Z,69.80
2023-02-02T00:49:32.923Z,69.60
2023-02-02T00:52:00.497Z,69.80
2023-02-02T00:54:27.911Z,69.80
2023-02-02T00:56:55.169Z,69.90
2023-02-02T00:59:22.151Z,70.00
2023-02-02T01:01:49.610Z,70.70
2023-02-02T01:04:16.617Z,70.00
2023-02-02T01:06:43.477Z,70.00
2023-02-02T01:09:10.387Z,69.90
2023-02-02T01:11:37.198Z,70.00
2023-02-02T01:14:04.326Z,70.00
2023-02-02T01:16:31.235Z,69.90
2023-02-02T01:18:58.133Z,69.90
2023-02-02T01:21:24.933Z,70.40
2023-02-02T01:23:51.708Z,69.90
2023-02-02T01:26:18.885Z,70.20
2023-02-02T01:28:45.816Z,70.00
2023-02-02T01:31:16.736Z,70.20
2023-02-02T01:33:45.341Z,70.20
2023-02-02T01:36:14.949Z,70.30
2023-02-02T01:38:42.389Z,70.40
2023-02-02T01:41:13.569Z,70.10
2023-02-02T01:43:44.001Z,70.20
2023-02-02T01:46:21.439Z,70.30
2023-02-02T01:48:56.609Z,69.90
2023-02-02T01:51:29.665Z,69.90
2023-02-02T01:53:59.518Z,69.60
2023-02-02T01:56:35.863Z,69.80
2023-02-02T01:59:05.028Z,70.00
2023-02-02T02:01:33.064Z,70.10
2023-02-02T02:04:00.241Z,70.30
2023-02-02T02:06:28.753Z,70.30
2023-02-02T02:09:03.533Z,70.30
2023-02-02T02:11:32.243Z,70.20
2023-02-02T02:14:20.347Z,69.90
2023-02-02T02:20:12.521Z,70.00
2023-02-02T02:23:35.839Z,70.20
2023-02-02T02:26:33.862Z,70.30
2023-02-02T02:29:20.045Z,70.30
2023-02-02T02:31:58.932Z,70.10
2023-02-02T02:34:33.031Z,69.90
2023-02-02T02:37:15.153Z,69.90
2023-02-02T02:39:50.396Z,69.90
2023-02-02T02:42:23.544Z,70.20
2023-02-02T02:44:53.136Z,70.60
2023-02-02T02:47:20.900Z,70.30
2023-02-02T02:49:49.380Z,70.00
2023-02-02T02:52:16.466Z,69.90
2023-02-02T02:54:51.583Z,69.70
2023-02-02T02:57:41.185Z,69.30
2023-02-02T03:00:17.502Z,69.40
2023-02-02T03:03:06.853Z,69.70
2023-02-02T03:06:21.701Z,69.70
2023-02-02T03:09:14.042Z,69.90
2023-02-02T03:11:52.142Z,70.00
2023-02-02T03:14:21.567Z,70.10
2023-02-02T03:16:52.308Z,70.50
2023-02-02T03:19:21.472Z,70.50
2023-02-02T03:21:49.678Z,70.60
2023-02-02T03:24:20.498Z,70.60
2023-02-02T03:26:49.672Z,70.80
2023-02-02T03:29:18.558Z,70.60
2023-02-02T03:31:50.838Z,70.20
2023-02-02T03:34:24.019Z,70.30
2023-02-02T03:36:55.715Z,70.10
2023-02-02T03:39:23.117Z,70.10
2023-02-02T03:41:56.825Z,70.10
2023-02-02T03:44:34.504Z,70.30
2023-02-02T03:47:05.753Z,70.20
2023-02-02T03:49:47.468Z,70.10
2023-02-02T03:52:15.149Z,70.00
2023-02-02T03:54:57.906Z,69.70
2023-02-02T03:57:27.455Z,69.80
2023-02-02T03:59:54.372Z,69.80
2023-02-02T04:02:21.880Z,69.80
2023-02-02T04:04:48.897Z,69.90
2023-02-02T04:07:15.943Z,70.10
2023-02-02T04:09:42.740Z,70.20
2023-02-02T04:12:09.644Z,70.40
2023-02-02T04:14:36.540Z,70.50
2023-02-02T04:17:03.376Z,70.70
2023-02-02T04:19:30.263Z,70.40
2023-02-02T04:21:57.043Z,70.10
2023-02-02T04:24:23.877Z,69.80
2023-02-02T04:26:50.973Z,69.90
2023-02-02T04:29:17.905Z,69.90
2023-02-02T04:31:44.953Z,69.80
2023-02-02T04:34:11.748Z,70.30
2023-02-02T04:36:39.377Z,70.00
2023-02-02T04:39:06.276Z,70.20
2023-02-02T04:41:33.195Z,70.10
2023-02-02T04:44:00.147Z,70.00
2023-02-02T04:46:28.793Z,70.20
2023-02-02T04:48:59.787Z,70.20
2023-02-02T04:51:28.250Z,70.10
2023-02-02T04:53:55.447Z,69.90
2023-02-02T04:56:22.811Z,69.70
2023-02-02T04:58:49.886Z,69.90
2023-02-02T05:01:22.919Z,69.80
2023-02-02T05:03:50.442Z,69.80
2023-02-02T05:06:19.776Z,69.60
2023-02-02T05:08:50.054Z,69.50
2023-02-02T05:11:20.781Z,69.60
2023-02-02T05:13:52.058Z,69.80
2023-02-02T05:16:21.829Z,69.70
2023-02-02T05:18:52.186Z,69.90
2023-02-02T05:21:20.016Z,70.10
2023-02-02T05:23:47.349Z,70.20
2023-02-02T05:26:23.947Z,69.90
2023-02-02T05:28:54.944Z,70.00
2023-02-02T05:31:22.587Z,70.80
2023-02-02T05:33:50.708Z,70.20
2023-02-02T05:36:20.363Z,70.20
2023-02-02T05:38:47.991Z,70.10
2023-02-02T05:41:16.363Z,70.10
2023-02-02T05:43:43.744Z,70.10
2023-02-02T05:46:11.688Z,70.10
2023-02-02T05:48:39.924Z,70.10
2023-02-02T05:51:17.912Z,70.20
2023-02-02T05:53:52.895Z,70.50
2023-02-02T05:56:24.379Z,70.50
2023-02-02T05:59:05.716Z,70.40
2023-02-02T06:01:35.636Z,70.50
2023-02-02T06:04:03.430Z,70.60
2023-02-02T06:06:38.160Z,70.70
2023-02-02T06:09:45.140Z,70.70
2023-02-02T06:21:10.255Z,70.30
2023-02-02T06:23:37.870Z,70.50
2023-02-02T06:26:05.745Z,70.60
2023-02-02T06:28:47.992Z,70.90
2023-02-02T06:44:22.607Z,71.00
2023-02-02T06:46:58.828Z,70.90
2023-02-02T06:53:02.351Z,70.80
2023-02-02T06:55:37.227Z,71.00
2023-02-02T06:58:09.341Z,70.90
2023-02-02T07:00:41.756Z,70.90
2023-02-02T07:03:11.780Z,71.20
2023-02-02T07:05:43.125Z,71.00
2023-02-02T07:11:15.185Z,70.90
2023-02-02T07:13:45.048Z,71.00
2023-02-02T07:16:14.801Z,70.90
2023-02-02T07:25:36.805Z,70.90
2023-02-02T07:30:56.249Z,71.00
2023-02-02T07:33:24.116Z,70.80
2023-02-02T07:35:51.611Z,71.00
2023-02-02T07:38:18.894Z,70.50
2023-02-02T07:40:46.701Z,70.30
2023-02-02T07:43:13.744Z,70.30
2023-02-02T07:45:41.108Z,70.20
2023-02-02T07:48:08.358Z,70.40
2023-02-02T07:50:35.251Z,70.40
2023-02-02T07:53:04.394Z,71.40
2023-02-02T07:55:32.709Z,70.60
2023-02-02T07:57:59.777Z,70.90
2023-02-02T08:00:27.209Z,70.70
2023-02-02T08:02:54.244Z,70.70
2023-02-02T08:05:22.848Z,71.10
2023-02-02T08:07:50.206Z,71.60
2023-02-02T08:10:17.394Z,71.00
2023-02-02T08:12:44.388Z,71.00
2023-02-02T08:15:12.580Z,71.20
2023-02-02T08:17:39.585Z,71.30
2023-02-02T08:20:07.146Z,71.20
2023-02-02T08:22:34.094Z,71.40
2023-02-02T08:25:00.932Z,71.80
2023-02-02T08:27:27.874Z,71.40
2023-02-02T08:29:54.761Z,71.50
2023-02-02T08:32:21.591Z,71.40
2023-02-02T08:34:49.337Z,71.60
2023-02-02T08:37:16.266Z,71.70
2023-02-02T08:39:43.153Z,71.30
2023-02-02T08:42:09.971Z,71.30
2023-02-02T08:44:45.872Z,71.50
2023-02-02T08:47:23.684Z,71.30
2023-02-02T08:49:50.718Z,71.50
2023-02-02T08:52:17.509Z,71.30
2023-02-02T08:54:45.479Z,71.30
2023-02-02T08:57:12.375Z,71.40
2023-02-02T08:59:39.719Z,71.60
2023-02-02T09:02:14.065Z,71.30
2023-02-02T09:04:43.775Z,71.40
2023-02-02T09:07:12.611Z,71.50
2023-02-02T09:09:40.288Z,71.50
2023-02-02T09:12:10.028Z,71.50
2023-02-02T09:14:37.717Z,71.70
2023-02-02T09:17:07.384Z,71.70
2023-02-02T09:19:36.083Z,71.80
2023-02-02T09:22:07.179Z,72.00
2023-02-02T09:24:34.638Z,72.00
2023-02-02T09:27:06.203Z,72.10
2023-02-02T09:29:33.891Z,72.10
2023-02-02T09:32:03.060Z,71.90
2023-02-02T09:34:30.826Z,72.00
2023-02-02T09:36:58.344Z,71.70
2023-02-02T09:39:25.926Z,71.70
2023-02-02T09:42:24.809Z,71.80
2023-02-02T09:45:07.212Z,71.70
2023-02-02T09:47:51.065Z,71.60
2023-02-02T09:50:29.880Z,71.50
2023-02-02T09:53:10.277Z,71.50
2023-02-02T09:55:40.371Z,71.40
2023-02-02T09:58:15.011Z,71.10
2023-02-02T10:00:54.077Z,71.00
2023-02-02T10:03:33.333Z,71.10
2023-02-02T10:06:21.228Z,71.10
2023-02-02T10:08:53.927Z,71.10
2023-02-02T10:11:30.788Z,70.80
2023-02-02T10:14:02.897Z,70.40
2023-02-02T10:16:31.095Z,70.40
2023-02-02T10:19:29.254Z,70.50
2023-02-02T10:22:23.148Z,70.50
2023-02-02T10:24:50.044Z,70.40
2023-02-02T10:27:40.245Z,70.20
2023-02-02T10:30:19.762Z,69.90
2023-02-02T10:33:03.070Z,69.80
2023-02-02T10:35:37.212Z,69.70
2023-02-02T10:38:32.223Z,69.90
2023-02-02T10:41:25.916Z,68.90
2023-02-02T10:44:02.094Z,68.60
2023-02-02T10:46:38.239Z,68.70
2023-02-02T10:49:27.293Z,68.10
2023-02-02T10:52:12.390Z,68.00
2023-02-02T10:54:55.912Z,67.70
2023-02-02T10:57:30.699Z,67.40
2023-02-02T11:00:13.865Z,67.60
2023-02-02T11:02:40.977Z,67.30
2023-02-02T11:05:35.695Z,67.40
2023-02-02T11:08:10.919Z,67.30
2023-02-02T11:10:37.821Z,66.80
2023-02-02T11:13:07.713Z,66.60
2023-02-02T11:15:34.643Z,66.60
2023-02-02T11:18:27.123Z,66.20
2023-02-02T11:20:54.202Z,66.30
2023-02-02T11:23:21.616Z,65.60
2023-02-02T11:25:59.663Z,65.60
2023-02-02T11:28:31.025Z,65.60
2023-02-02T11:30:58.485Z,65.50
2023-02-02T11:33:30.677Z,64.80
2023-02-02T11:36:03.567Z,64.50
2023-02-02T11:38:31.012Z,64.10
2023-02-02T11:41:03.959Z,64.00
2023-02-02T11:43:50.951Z,64.20
2023-02-02T11:46:21.941Z,64.20
2023-02-02T11:49:01.116Z,63.70
2023-02-02T11:51:29.326Z,63.60
2023-02-02T11:54:17.277Z,63.30
2023-02-02T11:56:51.885Z,63.70
2023-02-02T11:59:44.712Z,62.70
2023-02-02T12:02:25.341Z,63.30
2023-02-02T12:04:55.559Z,61.10
2023-02-02T12:07:32.766Z,60.30
2023-02-02T12:10:17.539Z,60.20
2023-02-02T12:12:59.620Z,60.50
2023-02-02T12:15:45.309Z,60.60
2023-02-02T12:18:31.182Z,60.00
2023-02-02T12:21:05.615Z,59.80
2023-02-02T12:23:54.536Z,59.60
2023-02-02T12:26:23.637Z,59.10
2023-02-02T12:29:20.120Z,59.60
2023-02-02T12:32:23.615Z,59.10
2023-02-02T12:35:13.309Z,58.90
2023-02-02T12:38:02.175Z,58.40
2023-02-02T12:40:29.961Z,58.00
2023-02-02T12:43:04.350Z,57.70
2023-02-02T12:45:42.846Z,57.80
2023-02-02T12:48:40.004Z,57.40
2023-02-02T12:51:24.788Z,57.20
2023-02-02T12:54:35.077Z,57.40
2023-02-02T12:57:29.838Z,57.20
2023-02-02T13:00:05.810Z,56.80
2023-02-02T13:02:54.134Z,56.80
2023-02-02T13:05:30.256Z,56.90
2023-02-02T13:08:12.684Z,56.30
2023-02-02T13:10:48.944Z,55.50
2023-02-02T13:13:31.346Z,55.00
2023-02-02T13:16:09.159Z,54.70
2023-02-02T13:18:46.239Z,54.60
2023-02-02T13:21:16.930Z,54.60
2023-02-02T13:23:50.417Z,54.90
2023-02-02T13:26:21.434Z,54.00
2023-02-02T13:29:05.551Z,54.10
2023-02-02T13:31:38.830Z,60.40
2023-02-02T13:34:08.414Z,60.90
2023-02-02T13:36:37.597Z,58.50
2023-02-02T13:39:23.615Z,57.60
2023-02-02T13:41:52.639Z,55.50
2023-02-02T13:44:32.997Z,54.50
2023-02-02T13:47:11.342Z,53.80
2023-02-02T13:49:43.940Z,53.00
2023-02-02T13:52:49.301Z,52.10
2023-02-02T13:55:43.457Z,51.20
2023-02-02T13:58:28.947Z,50.60
2023-02-02T14:01:06.057Z,49.80
2023-02-02T14:03:55.409Z,49.60
2023-02-02T14:06:25.035Z,49.50
2023-02-02T14:08:56.361Z,49.00
2023-02-02T14:11:33.679Z,48.70
2023-02-02T14:14:39.252Z,48.40
2023-02-02T14:17:27.629Z,48.20
2023-02-02T14:19:59.197Z,48.10
2023-02-02T14:22:38.285Z,47.70
2023-02-02T14:25:33.376Z,48.00
2023-02-02T14:28:12.367Z,47.80
2023-02-02T14:30:40.620Z,47.60
2023-02-02T14:33:22.836Z,47.70
2023-02-02T14:36:00.020Z,47.60
2023-02-02T14:38:56.201Z,47.70
2023-02-02T14:42:24.270Z,47.40
2023-02-02T14:45:25.841Z,47.30
2023-02-02T14:47:59.680Z,47.00
2023-02-02T14:50:39.470Z,46.90
2023-02-02T14:53:13.101Z,47.20
2023-02-02T14:56:04.210Z,47.00
2023-02-02T14:58:36.137Z,47.00
2023-02-02T15:01:18.217Z,46.80
2023-02-02T15:03:56.194Z,46.90
2023-02-02T15:06:23.035Z,46.80
2023-02-02T15:09:23.206Z,47.10
2023-02-02T15:12:02.559Z,47.10
2023-02-02T15:14:38.063Z,47.10
2023-02-02T15:17:15.942Z,47.30
2023-02-02T15:19:48.131Z,47.60
2023-02-02T15:22:31.512Z,47.90
2023-02-02T15:25:04.021Z,48.40
2023-02-02T15:27:31.997Z,48.70
2023-02-02T15:30:07.240Z,48.90
2023-02-02T15:32:36.453Z,48.80
2023-02-02T15:35:13.192Z,49.20
2023-02-02T15:37:42.001Z,49.40
2023-02-02T15:40:14.821Z,49.50
2023-02-02T15:42:54.228Z,49.80
2023-02-02T15:45:38.076Z,50.10
2023-02-02T15:48:20.462Z,50.40
2023-02-02T15:50:51.230Z,50.40
2023-02-02T15:53:23.395Z,50.70
2023-02-02T15:55:50.651Z,50.70
2023-02-02T15:58:33.428Z,51.00
2023-02-02T16:01:16.627Z,51.30
2023-02-02T16:04:01.849Z,51.60
2023-02-02T16:06:30.119Z,51.90
2023-02-02T16:08:57.397Z,52.30
2023-02-02T16:11:24.380Z,52.50
2023-02-02T16:14:04.148Z,53.00
2023-02-02T16:16:32.832Z,53.30
2023-02-02T16:19:08.720Z,53.70
2023-02-02T16:21:40.841Z,54.00
2023-02-02T16:24:15.359Z,54.20
2023-02-02T16:26:42.387Z,54.60
2023-02-02T16:29:17.406Z,54.90
2023-02-02T16:31:47.151Z,55.10
2023-02-02T16:34:32.790Z,55.50
2023-02-02T16:37:27.495Z,55.80
2023-02-02T16:40:21.329Z,56.80
2023-02-02T16:43:15.723Z,57.00
2023-02-02T16:45:57.745Z,57.40
2023-02-02T16:48:36.832Z,57.50
2023-02-02T16:51:16.041Z,57.60
2023-02-02T16:53:46.448Z,57.80
2023-02-02T16:56:51.442Z,58.10
2023-02-02T16:59:26.480Z,58.20
2023-02-02T17:01:57.926Z,58.40
2023-02-02T17:04:34.072Z,58.50
2023-02-02T17:07:14.218Z,58.60
2023-02-02T17:09:43.617Z,59.00
2023-02-02T17:12:32.661Z,59.20
2023-02-02T17:15:21.394Z,59.50
2023-02-02T17:17:49.212Z,59.50
2023-02-02T17:20:17.966Z,59.80
2023-02-02T17:22:51.643Z,59.70
2023-02-02T17:25:31.897Z,59.90
2023-02-02T17:28:00.411Z,60.10
2023-02-02T17:30:28.832Z,60.20
2023-02-02T17:32:55.901Z,60.50
2023-02-02T17:35:26.548Z,60.70
2023-02-02T17:37:54.654Z,60.90
2023-02-02T17:40:23.366Z,61.10
2023-02-02T17:42:52.562Z,60.90
2023-02-02T17:45:45.539Z,60.80
2023-02-02T17:48:13.688Z,60.40
2023-02-02T17:50:42.052Z,60.30
2023-02-02T17:53:14.039Z,60.40
2023-02-02T17:55:42.838Z,60.30
2023-02-02T17:58:13.222Z,60.70
2023-02-02T18:00:41.765Z,60.80
2023-02-02T18:03:30.949Z,60.80
2023-02-02T18:06:01.588Z,61.10
2023-02-02T18:08:29.027Z,61.20
2023-02-02T18:10:56.019Z,61.60
2023-02-02T18:13:23.596Z,61.90
2023-02-02T18:15:51.827Z,61.80
2023-02-02T18:18:18.842Z,62.00
2023-02-02T18:20:48.056Z,62.00
2023-02-02T18:23:16.672Z,62.30
2023-02-02T18:25:43.820Z,62.20
2023-02-02T18:28:11.461Z,62.20
2023-02-02T18:30:39.792Z,62.50
2023-02-02T18:33:11.263Z,62.60
2023-02-02T18:35:42.493Z,62.50
2023-02-02T18:38:10.395Z,62.70
2023-02-02T18:40:37.944Z,63.20
2023-02-02T18:43:04.786Z,62.80
2023-02-02T18:45:31.657Z,62.80
2023-02-02T18:47:58.519Z,63.10
2023-02-02T18:50:25.473Z,63.20
2023-02-02T18:52:52.452Z,63.20
2023-02-02T18:55:19.333Z,63.30
2023-02-02T18:57:46.243Z,63.20
2023-02-02T19:00:13.691Z,63.40
2023-02-02T19:02:40.602Z,63.30
2023-02-02T19:05:26.581Z,63.40
2023-02-02T19:08:20.503Z,63.50
2023-02-02T19:11:00.523Z,63.40
2023-02-02T19:13:29.043Z,63.50
2023-02-02T19:15:57.241Z,63.70
2023-02-02T19:18:24.663Z,63.70
2023-02-02T19:20:52.549Z,63.70
2023-02-02T19:23:23.250Z,63.90
2023-02-02T19:25:53.976Z,64.30
2023-02-02T19:28:29.727Z,64.50
2023-02-02T19:30:59.284Z,64.70
2023-02-02T19:33:38.914Z,64.20
2023-02-02T19:36:13.076Z,64.40
2023-02-02T19:38:39.907Z,65.10
2023-02-02T19:41:20.172Z,64.40
2023-02-02T19:43:48.903Z,64.10
2023-02-02T19:46:22.839Z,64.40
2023-02-02T19:48:53.805Z,64.60
2023-02-02T19:51:48.526Z,64.50
2023-02-02T20:06:18.828Z,65.00
2023-02-02T20:08:59.652Z,65.10
2023-02-02T20:14:39.019Z,65.40
2023-02-02T20:21:09.570Z,64.80
2023-02-02T20:30:58.153Z,66.00
2023-02-02T20:33:27.830Z,66.10
2023-02-02T20:35:55.767Z,66.40
2023-02-02T20:38:30.186Z,66.80
2023-02-02T20:40:58.369Z,66.80
2023-02-02T20:43:25.897Z,66.70
2023-02-02T20:45:53.166Z,66.80
2023-02-02T20:48:20.039Z,67.10
2023-02-02T20:50:46.971Z,67.30
2023-02-02T20:53:16.897Z,67.20
2023-02-02T20:55:44.608Z,67.20
2023-02-02T20:58:12.040Z,67.00
2023-02-02T21:00:39.318Z,67.20
2023-02-02T21:03:06.171Z,66.80
2023-02-02T21:05:33.018Z,66.60
2023-02-02T21:07:59.904Z,66.60
2023-02-02T21:10:27.527Z,66.60
2023-02-02T21:12:54.609Z,66.50
2023-02-02T21:15:21.515Z,66.60
2023-02-02T21:17:48.423Z,66.50
2023-02-02T21:20:15.684Z,66.50
2023-02-02T21:22:42.841Z,66.60
2023-02-02T21:25:10.272Z,66.70
2023-02-02T21:27:41.051Z,66.70
2023-02-02T21:30:10.792Z,67.00
2023-02-02T21:32:37.553Z,66.70
2023-02-02T21:35:06.420Z,66.80
2023-02-02T21:37:36.675Z,67.00
2023-02-02T21:40:13.331Z,66.90
2023-02-02T21:42:45.411Z,66.80
2023-02-02T21:45:47.588Z,66.90
2023-02-02T21:48:27.278Z,67.10
2023-02-02T21:50:54.128Z,67.30
2023-02-02T21:53:23.829Z,67.00
2023-02-02T21:55:59.427Z,66.80
2023-02-02T21:58:35.320Z,66.90
2023-02-02T22:01:32.977Z,67.30
2023-02-02T22:04:00.285Z,70.70
2023-02-02T22:06:36.476Z,70.90
2023-02-02T22:09:12.413Z,68.90
2023-02-02T22:11:46.209Z,68.30
2023-02-02T22:14:34.356Z,68.40
2023-02-02T22:17:01.366Z,68.10
2023-02-02T22:19:33.021Z,68.50
2023-02-02T22:22:25.545Z,68.30
2023-02-02T22:25:06.304Z,68.10
2023-02-02T22:27:54.978Z,68.20
2023-02-02T22:30:37.065Z,68.80
2023-02-02T22:33:06.051Z,68.50
2023-02-02T22:35:33.909Z,68.20
2023-02-02T22:38:01.204Z,68.60
2023-02-02T22:40:28.803Z,69.40
2023-02-02T22:42:58.479Z,69.70
2023-02-02T22:45:25.876Z,70.00
2023-02-02T22:47:53.108Z,70.20
2023-02-02T22:50:28.148Z,70.80
2023-02-02T22:52:55.433Z,70.90
2023-02-02T22:55:22.834Z,70.90
2023-02-02T22:57:49.794Z,70.90
2023-02-02T23:00:22.277Z,70.90
2023-02-02T23:02:49.501Z,71.00
2023-02-02T23:05:17.497Z,71.10
2023-02-02T23:07:45.241Z,71.20
2023-02-02T23:10:14.638Z,71.10
2023-02-02T23:12:42.191Z,71.10
2023-02-02T23:15:10.124Z,71.30
2023-02-02T23:17:37.104Z,71.00
2023-02-02T23:20:06.714Z,71.00
2023-02-02T23:22:33.658Z,71.00
2023-02-02T23:25:00.638Z,71.20
2023-02-02T23:27:27.508Z,71.60
2023-02-02T23:29:54.355Z,71.60
2023-02-02T23:32:21.387Z,71.50
2023-02-02T23:34:48.367Z,71.30
2023-02-02T23:37:15.325Z,71.50
2023-02-02T23:39:42.238Z,71.30
2023-02-02T23:42:09.089Z,71.40
2023-02-02T23:44:35.986Z,71.50
2023-02-02T23:47:03.479Z,71.30
2023-02-02T23:49:34.013Z,71.20
2023-02-02T23:52:00.985Z,71.30
2023-02-02T23:54:29.078Z,71.40
2023-02-02T23:56:56.967Z,71.20
2023-02-02T23:59:23.786Z,71.30
